SBI761 UNNT-UACC
Flight info
| Callsign | SBI761 |
|---|---|
| Flight time | 1h 32m |
| Altitude | 36000 |
| Route | ALIRO1K ALIRO R484 MISLU A366 LAGMO L988 ABELI Z746 EDANO EDANO1D |
| Aircraft | A320/M-SDE3FGHIRWY/LB1 |
Departure
| Time | 2026-04-30 08:37 |
|---|---|
| Airport | Novosibirsk Tolmachevo Airport (UNNT) |
Arrival
| Time | 2026-04-30 10:09 |
|---|---|
| Airport | Nursultan Nazarbayev International Airport (UACC) |
| Time | Latitude | Longitude | Altitude | Speed | Heading |
|---|---|---|---|---|---|
| 2026-04-30 08:26 | 55.01103 | 82.66516 | 373 ft | 0 kts | 171° |
| 2026-04-30 08:32 | 55.01099 | 82.66517 | 373 ft | 5 kts | 171° |
| 2026-04-30 08:33 | 55.01078 | 82.66621 | 373 ft | 12 kts | 70° |
| 2026-04-30 08:33 | 55.01098 | 82.66751 | 373 ft | 10 kts | 85° |
| 2026-04-30 08:33 | 55.01092 | 82.66863 | 373 ft | 8 kts | 113° |
| 2026-04-30 08:33 | 55.01079 | 82.66948 | 373 ft | 7 kts | 85° |
| 2026-04-30 08:34 | 55.01091 | 82.67084 | 373 ft | 14 kts | 81° |
| 2026-04-30 08:34 | 55.01106 | 82.67247 | 373 ft | 13 kts | 83° |
| 2026-04-30 08:34 | 55.01109 | 82.67394 | 373 ft | 11 kts | 88° |
| 2026-04-30 08:34 | 55.01147 | 82.67489 | 373 ft | 9 kts | 35° |
| 2026-04-30 08:35 | 55.01198 | 82.67542 | 373 ft | 8 kts | 30° |
| 2026-04-30 08:35 | 55.01252 | 82.67598 | 373 ft | 9 kts | 31° |
| 2026-04-30 08:35 | 55.01302 | 82.67649 | 373 ft | 8 kts | 30° |
| 2026-04-30 08:35 | 55.01390 | 82.67740 | 372 ft | 18 kts | 32° |
| 2026-04-30 08:36 | 55.01482 | 82.67735 | 371 ft | 12 kts | 295° |
| 2026-04-30 08:36 | 55.01473 | 82.67582 | 371 ft | 22 kts | 260° |
| 2026-04-30 08:36 | 55.01407 | 82.66875 | 375 ft | 93 kts | 261° |
| 2026-04-30 08:36 | 55.01277 | 82.65427 | 373 ft | 147 kts | 261° |
| 2026-04-30 08:37 | 55.01098 | 82.63431 | 500 ft | 179 kts | 260° |
| 2026-04-30 08:37 | 55.00918 | 82.61304 | 1226 ft | 177 kts | 259° |
| 2026-04-30 08:37 | 55.00733 | 82.59159 | 1964 ft | 181 kts | 258° |
| 2026-04-30 08:37 | 55.00530 | 82.56902 | 2353 ft | 200 kts | 258° |
| 2026-04-30 08:38 | 55.00301 | 82.54403 | 2819 ft | 215 kts | 260° |
| 2026-04-30 08:38 | 55.00422 | 82.51717 | 3328 ft | 237 kts | 285° |
| 2026-04-30 08:38 | 55.01027 | 82.49004 | 3977 ft | 247 kts | 293° |
| 2026-04-30 08:38 | 55.01786 | 82.46291 | 4864 ft | 250 kts | 295° |
| 2026-04-30 08:39 | 55.02572 | 82.43581 | 5783 ft | 251 kts | 295° |
| 2026-04-30 08:39 | 55.03354 | 82.40842 | 6614 ft | 255 kts | 295° |
| 2026-04-30 08:39 | 55.03971 | 82.37959 | 7075 ft | 254 kts | 280° |
| 2026-04-30 08:39 | 55.04084 | 82.34866 | 7744 ft | 264 kts | 261° |
| 2026-04-30 08:40 | 55.03425 | 82.31851 | 8452 ft | 272 kts | 236° |
| 2026-04-30 08:40 | 55.02004 | 82.29649 | 9254 ft | 280 kts | 208° |
| 2026-04-30 08:40 | 55.00093 | 82.28856 | 10045 ft | 290 kts | 184° |
| 2026-04-30 08:40 | 54.98045 | 82.28871 | 10596 ft | 303 kts | 182° |
| 2026-04-30 08:41 | 54.95854 | 82.28926 | 10847 ft | 326 kts | 181° |
| 2026-04-30 08:41 | 54.93548 | 82.28993 | 11397 ft | 335 kts | 181° |
| 2026-04-30 08:41 | 54.91201 | 82.29060 | 12110 ft | 340 kts | 181° |
| 2026-04-30 08:41 | 54.88822 | 82.29121 | 12844 ft | 344 kts | 181° |
| 2026-04-30 08:42 | 54.86419 | 82.29172 | 13579 ft | 347 kts | 182° |
| 2026-04-30 08:42 | 54.84814 | 82.29205 | 14043 ft | 350 kts | 182° |
| 2026-04-30 08:42 | 54.82370 | 82.29257 | 14671 ft | 353 kts | 182° |
| 2026-04-30 08:42 | 54.79903 | 82.29307 | 15288 ft | 357 kts | 182° |
| 2026-04-30 08:43 | 54.77410 | 82.29352 | 15905 ft | 360 kts | 182° |
| 2026-04-30 08:43 | 54.74889 | 82.29397 | 16490 ft | 364 kts | 182° |
| 2026-04-30 08:43 | 54.72342 | 82.29443 | 17086 ft | 368 kts | 182° |
| 2026-04-30 08:43 | 54.69771 | 82.29487 | 17671 ft | 372 kts | 182° |
| 2026-04-30 08:44 | 54.67169 | 82.29532 | 18282 ft | 375 kts | 182° |
| 2026-04-30 08:44 | 54.64544 | 82.29580 | 18814 ft | 379 kts | 182° |
| 2026-04-30 08:44 | 54.61895 | 82.29632 | 19336 ft | 382 kts | 182° |
| 2026-04-30 08:44 | 54.59228 | 82.29686 | 19859 ft | 385 kts | 182° |
| 2026-04-30 08:45 | 54.56539 | 82.29739 | 20378 ft | 388 kts | 182° |
| 2026-04-30 08:45 | 54.53828 | 82.29790 | 20890 ft | 391 kts | 182° |
| 2026-04-30 08:45 | 54.51100 | 82.29839 | 21386 ft | 394 kts | 182° |
| 2026-04-30 08:45 | 54.48350 | 82.29889 | 21853 ft | 397 kts | 182° |
| 2026-04-30 08:46 | 54.45580 | 82.29942 | 22325 ft | 400 kts | 182° |
| 2026-04-30 08:46 | 54.42823 | 82.29996 | 22798 ft | 403 kts | 182° |
| 2026-04-30 08:46 | 54.39975 | 82.30052 | 23278 ft | 406 kts | 182° |
| 2026-04-30 08:46 | 54.37180 | 82.30105 | 23737 ft | 408 kts | 182° |
| 2026-04-30 08:47 | 54.34331 | 82.30159 | 24132 ft | 411 kts | 182° |
| 2026-04-30 08:47 | 54.31461 | 82.30215 | 24512 ft | 414 kts | 182° |
| 2026-04-30 08:47 | 54.28573 | 82.30271 | 24892 ft | 416 kts | 182° |
| 2026-04-30 08:47 | 54.25675 | 82.30326 | 25267 ft | 418 kts | 182° |
| 2026-04-30 08:48 | 54.22751 | 82.30380 | 25614 ft | 421 kts | 182° |
| 2026-04-30 08:48 | 54.19810 | 82.30431 | 25978 ft | 424 kts | 182° |
| 2026-04-30 08:48 | 54.16856 | 82.30482 | 26337 ft | 426 kts | 182° |
| 2026-04-30 08:48 | 54.13884 | 82.30534 | 26707 ft | 428 kts | 182° |
| 2026-04-30 08:49 | 54.10897 | 82.30592 | 27069 ft | 430 kts | 182° |
| 2026-04-30 08:49 | 54.07895 | 82.30654 | 27420 ft | 433 kts | 182° |
| 2026-04-30 08:49 | 54.04881 | 82.30650 | 27768 ft | 433 kts | 186° |
| 2026-04-30 08:49 | 54.01899 | 82.29986 | 28112 ft | 432 kts | 196° |
| 2026-04-30 08:50 | 53.98999 | 82.28659 | 28428 ft | 432 kts | 199° |
| 2026-04-30 08:50 | 53.96099 | 82.27258 | 28772 ft | 435 kts | 199° |
| 2026-04-30 08:50 | 53.93183 | 82.25854 | 29107 ft | 437 kts | 199° |
| 2026-04-30 08:50 | 53.90252 | 82.24448 | 29437 ft | 439 kts | 199° |
| 2026-04-30 08:51 | 53.87309 | 82.23043 | 29758 ft | 441 kts | 199° |
| 2026-04-30 08:51 | 53.84344 | 82.21638 | 30070 ft | 443 kts | 199° |
| 2026-04-30 08:51 | 53.81371 | 82.20235 | 30357 ft | 445 kts | 199° |
| 2026-04-30 08:51 | 53.78380 | 82.18821 | 30609 ft | 447 kts | 199° |
| 2026-04-30 08:52 | 53.75382 | 82.17399 | 30862 ft | 449 kts | 199° |
| 2026-04-30 08:52 | 53.72371 | 82.15974 | 31108 ft | 450 kts | 199° |
| 2026-04-30 08:52 | 53.69350 | 82.14547 | 31353 ft | 452 kts | 199° |
| 2026-04-30 08:52 | 53.66319 | 82.13117 | 31653 ft | 452 kts | 199° |
| 2026-04-30 08:53 | 53.63294 | 82.11691 | 32006 ft | 451 kts | 199° |
| 2026-04-30 08:53 | 53.60279 | 82.10270 | 32352 ft | 450 kts | 199° |
| 2026-04-30 08:53 | 53.57265 | 82.08855 | 32691 ft | 449 kts | 199° |
| 2026-04-30 08:53 | 53.54259 | 82.07446 | 33033 ft | 448 kts | 199° |
| 2026-04-30 08:54 | 53.51251 | 82.06038 | 33378 ft | 448 kts | 199° |
| 2026-04-30 08:54 | 53.48254 | 82.04646 | 33713 ft | 447 kts | 198° |
| 2026-04-30 08:54 | 53.45303 | 82.03279 | 34103 ft | 445 kts | 198° |
| 2026-04-30 08:54 | 53.42328 | 82.01896 | 34440 ft | 443 kts | 198° |
| 2026-04-30 08:55 | 53.39358 | 82.00512 | 34725 ft | 443 kts | 199° |
| 2026-04-30 08:55 | 53.36388 | 81.99127 | 34993 ft | 442 kts | 199° |
| 2026-04-30 08:55 | 53.33429 | 81.97749 | 35251 ft | 442 kts | 199° |
| 2026-04-30 08:55 | 53.30465 | 81.96376 | 35487 ft | 442 kts | 198° |
| 2026-04-30 08:56 | 53.27505 | 81.95013 | 35728 ft | 442 kts | 198° |
| 2026-04-30 08:56 | 53.24542 | 81.93653 | 35956 ft | 441 kts | 198° |
| 2026-04-30 08:56 | 53.21577 | 81.92288 | 36133 ft | 441 kts | 198° |
| 2026-04-30 08:57 | 53.15699 | 81.89581 | 36185 ft | 436 kts | 199° |
| 2026-04-30 08:57 | 53.09861 | 81.86903 | 36185 ft | 435 kts | 198° |
| 2026-04-30 08:58 | 53.04024 | 81.84245 | 36170 ft | 435 kts | 198° |
| 2026-04-30 08:58 | 52.98184 | 81.81573 | 36173 ft | 435 kts | 198° |
| 2026-04-30 08:59 | 52.92342 | 81.78909 | 36169 ft | 435 kts | 198° |
| 2026-04-30 08:59 | 52.86633 | 81.75735 | 36166 ft | 430 kts | 211° |
| 2026-04-30 09:00 | 52.81929 | 81.69863 | 36167 ft | 422 kts | 231° |
| 2026-04-30 09:00 | 52.78577 | 81.62005 | 36161 ft | 419 kts | 240° |
| 2026-04-30 09:01 | 52.75482 | 81.53934 | 36167 ft | 419 kts | 240° |
| 2026-04-30 09:01 | 52.72347 | 81.45804 | 36157 ft | 420 kts | 239° |
| 2026-04-30 09:02 | 52.67618 | 81.33645 | 36142 ft | 420 kts | 239° |
| 2026-04-30 09:02 | 52.64459 | 81.25531 | 36163 ft | 421 kts | 239° |
| 2026-04-30 09:03 | 52.61300 | 81.17426 | 36166 ft | 421 kts | 239° |
| 2026-04-30 09:03 | 52.58136 | 81.09335 | 36168 ft | 421 kts | 239° |
| 2026-04-30 09:04 | 52.54965 | 81.01256 | 36167 ft | 421 kts | 239° |
| 2026-04-30 09:04 | 52.51778 | 80.93182 | 36156 ft | 421 kts | 239° |
| 2026-04-30 09:05 | 52.48582 | 80.85117 | 36153 ft | 422 kts | 239° |
| 2026-04-30 09:05 | 52.45407 | 80.77103 | 36155 ft | 422 kts | 239° |
| 2026-04-30 09:06 | 52.42208 | 80.69038 | 36157 ft | 422 kts | 239° |
| 2026-04-30 09:06 | 52.39000 | 80.60989 | 36146 ft | 422 kts | 239° |
| 2026-04-30 09:07 | 52.35779 | 80.52954 | 36145 ft | 422 kts | 239° |
| 2026-04-30 09:07 | 52.32557 | 80.44925 | 36143 ft | 422 kts | 239° |
| 2026-04-30 09:08 | 52.29323 | 80.36909 | 36145 ft | 423 kts | 238° |
| 2026-04-30 09:08 | 52.26080 | 80.28908 | 36145 ft | 423 kts | 238° |
| 2026-04-30 09:09 | 52.22837 | 80.20895 | 36144 ft | 423 kts | 238° |
| 2026-04-30 09:09 | 52.19598 | 80.12901 | 36143 ft | 423 kts | 238° |
| 2026-04-30 09:10 | 52.16346 | 80.04919 | 36129 ft | 423 kts | 238° |
| 2026-04-30 09:10 | 52.13075 | 79.96950 | 36130 ft | 424 kts | 238° |
| 2026-04-30 09:11 | 52.09795 | 79.88971 | 36131 ft | 424 kts | 238° |
| 2026-04-30 09:11 | 52.06534 | 79.81065 | 36131 ft | 424 kts | 238° |
| 2026-04-30 09:12 | 52.03254 | 79.73113 | 36129 ft | 424 kts | 238° |
| 2026-04-30 09:12 | 52.01611 | 79.69137 | 36258 ft | 424 kts | 238° |
| 2026-04-30 09:12 | 51.99970 | 79.65171 | 36132 ft | 424 kts | 238° |
| 2026-04-30 09:13 | 51.96679 | 79.57247 | 36128 ft | 423 kts | 238° |
| 2026-04-30 09:13 | 51.93376 | 79.49338 | 36129 ft | 423 kts | 238° |
| 2026-04-30 09:14 | 51.90069 | 79.41441 | 36127 ft | 424 kts | 238° |
| 2026-04-30 09:14 | 51.86755 | 79.33556 | 36128 ft | 424 kts | 238° |
| 2026-04-30 09:15 | 51.83886 | 79.25294 | 36129 ft | 420 kts | 252° |
| 2026-04-30 09:15 | 51.82785 | 79.16097 | 36119 ft | 417 kts | 267° |
| 2026-04-30 09:16 | 51.82392 | 79.06717 | 36115 ft | 418 kts | 267° |
| 2026-04-30 09:16 | 51.81967 | 78.97331 | 36118 ft | 419 kts | 267° |
| 2026-04-30 09:17 | 51.81538 | 78.87935 | 36121 ft | 419 kts | 267° |
| 2026-04-30 09:17 | 51.81110 | 78.78601 | 36126 ft | 420 kts | 267° |
| 2026-04-30 09:18 | 51.80671 | 78.69198 | 36120 ft | 420 kts | 267° |
| 2026-04-30 09:18 | 51.80213 | 78.59786 | 36122 ft | 421 kts | 266° |
| 2026-04-30 09:19 | 51.79749 | 78.50360 | 36125 ft | 421 kts | 266° |
| 2026-04-30 09:19 | 51.79291 | 78.40932 | 36125 ft | 421 kts | 267° |
| 2026-04-30 09:20 | 51.78827 | 78.31505 | 36127 ft | 421 kts | 266° |
| 2026-04-30 09:20 | 51.78346 | 78.22085 | 36122 ft | 421 kts | 266° |
| 2026-04-30 09:21 | 51.77854 | 78.12650 | 36122 ft | 422 kts | 266° |
| 2026-04-30 09:21 | 51.77352 | 78.03218 | 36126 ft | 422 kts | 266° |
| 2026-04-30 09:22 | 51.76847 | 77.93784 | 36123 ft | 422 kts | 266° |
| 2026-04-30 09:22 | 51.76335 | 77.84358 | 36124 ft | 422 kts | 266° |
| 2026-04-30 09:23 | 51.75821 | 77.74920 | 36117 ft | 422 kts | 266° |
| 2026-04-30 09:23 | 51.75292 | 77.65482 | 36107 ft | 422 kts | 265° |
| 2026-04-30 09:24 | 51.74738 | 77.56046 | 36106 ft | 423 kts | 266° |
| 2026-04-30 09:24 | 51.74203 | 77.46602 | 36114 ft | 423 kts | 266° |
| 2026-04-30 09:25 | 51.73664 | 77.37153 | 36117 ft | 423 kts | 266° |
| 2026-04-30 09:25 | 51.73110 | 77.27723 | 36111 ft | 422 kts | 266° |
| 2026-04-30 09:26 | 51.72541 | 77.18353 | 36112 ft | 422 kts | 266° |
| 2026-04-30 09:26 | 51.71965 | 77.08931 | 36113 ft | 422 kts | 266° |
| 2026-04-30 09:27 | 51.71383 | 76.99509 | 36112 ft | 422 kts | 265° |
| 2026-04-30 09:27 | 51.70793 | 76.90079 | 36109 ft | 422 kts | 265° |
| 2026-04-30 09:28 | 51.70198 | 76.80658 | 36102 ft | 422 kts | 265° |
| 2026-04-30 09:28 | 51.69600 | 76.71243 | 36104 ft | 422 kts | 265° |
| 2026-04-30 09:29 | 51.68991 | 76.61832 | 36109 ft | 422 kts | 265° |
| 2026-04-30 09:29 | 51.68374 | 76.52417 | 36105 ft | 422 kts | 265° |
| 2026-04-30 09:30 | 51.67785 | 76.43600 | 36110 ft | 422 kts | 265° |
| 2026-04-30 09:30 | 51.67151 | 76.34203 | 36094 ft | 422 kts | 265° |
| 2026-04-30 09:31 | 51.66509 | 76.24814 | 36094 ft | 422 kts | 265° |
| 2026-04-30 09:31 | 51.65858 | 76.15425 | 36097 ft | 422 kts | 265° |
| 2026-04-30 09:32 | 51.65204 | 76.06035 | 36091 ft | 422 kts | 265° |
| 2026-04-30 09:32 | 51.64546 | 75.96705 | 36091 ft | 422 kts | 265° |
| 2026-04-30 09:33 | 51.63879 | 75.87320 | 36084 ft | 422 kts | 265° |
| 2026-04-30 09:33 | 51.63202 | 75.77933 | 36077 ft | 422 kts | 265° |
| 2026-04-30 09:34 | 51.62517 | 75.68546 | 36072 ft | 423 kts | 265° |
| 2026-04-30 09:34 | 51.61938 | 75.60740 | 36071 ft | 422 kts | 265° |
| 2026-04-30 09:35 | 51.61238 | 75.51358 | 36064 ft | 423 kts | 265° |
| 2026-04-30 09:35 | 51.60538 | 75.41970 | 36066 ft | 423 kts | 264° |
| 2026-04-30 09:36 | 51.59819 | 75.32578 | 36053 ft | 423 kts | 264° |
| 2026-04-30 09:36 | 51.59073 | 75.23190 | 36055 ft | 424 kts | 262° |
| 2026-04-30 09:37 | 51.57539 | 75.14015 | 36051 ft | 426 kts | 255° |
| 2026-04-30 09:37 | 51.55838 | 75.04897 | 36057 ft | 426 kts | 255° |
| 2026-04-30 09:38 | 51.54130 | 74.95766 | 36054 ft | 426 kts | 255° |
| 2026-04-30 09:38 | 51.52422 | 74.86641 | 36056 ft | 427 kts | 255° |
| 2026-04-30 09:39 | 51.50712 | 74.77525 | 36052 ft | 427 kts | 255° |
| 2026-04-30 09:39 | 51.48987 | 74.68412 | 36054 ft | 427 kts | 255° |
| 2026-04-30 09:40 | 51.47246 | 74.59309 | 36058 ft | 427 kts | 255° |
| 2026-04-30 09:40 | 51.45517 | 74.50276 | 36053 ft | 427 kts | 255° |
| 2026-04-30 09:41 | 51.43778 | 74.41178 | 36046 ft | 427 kts | 255° |
| 2026-04-30 09:41 | 51.42031 | 74.32078 | 35800 ft | 428 kts | 255° |
| 2026-04-30 09:42 | 51.41154 | 74.27529 | 35551 ft | 427 kts | 255° |
| 2026-04-30 09:42 | 51.40275 | 74.22998 | 35314 ft | 425 kts | 255° |
| 2026-04-30 09:42 | 51.39395 | 74.18483 | 35062 ft | 424 kts | 255° |
| 2026-04-30 09:42 | 51.38517 | 74.13981 | 34813 ft | 423 kts | 255° |
| 2026-04-30 09:43 | 51.37641 | 74.09492 | 34571 ft | 422 kts | 255° |
| 2026-04-30 09:43 | 51.36762 | 74.05013 | 34335 ft | 421 kts | 255° |
| 2026-04-30 09:43 | 51.35885 | 74.00556 | 34077 ft | 419 kts | 255° |
| 2026-04-30 09:43 | 51.35013 | 73.96134 | 33601 ft | 415 kts | 255° |
| 2026-04-30 09:44 | 51.34148 | 73.91751 | 33108 ft | 411 kts | 255° |
| 2026-04-30 09:44 | 51.33287 | 73.87401 | 32615 ft | 408 kts | 254° |
| 2026-04-30 09:44 | 51.32431 | 73.83092 | 32125 ft | 405 kts | 255° |
| 2026-04-30 09:44 | 51.31585 | 73.78814 | 31645 ft | 402 kts | 255° |
| 2026-04-30 09:45 | 51.30744 | 73.74578 | 31176 ft | 399 kts | 255° |
| 2026-04-30 09:45 | 51.29907 | 73.70371 | 30713 ft | 396 kts | 254° |
| 2026-04-30 09:45 | 51.29071 | 73.66199 | 30259 ft | 392 kts | 254° |
| 2026-04-30 09:45 | 51.28242 | 73.62070 | 29759 ft | 389 kts | 254° |
| 2026-04-30 09:46 | 51.27433 | 73.58036 | 29326 ft | 384 kts | 254° |
| 2026-04-30 09:46 | 51.26614 | 73.53958 | 28906 ft | 378 kts | 253° |
| 2026-04-30 09:46 | 51.25827 | 73.50050 | 28502 ft | 373 kts | 253° |
| 2026-04-30 09:46 | 51.25037 | 73.46134 | 28093 ft | 368 kts | 253° |
| 2026-04-30 09:47 | 51.24261 | 73.42277 | 27689 ft | 363 kts | 253° |
| 2026-04-30 09:47 | 51.23491 | 73.38460 | 27288 ft | 359 kts | 253° |
| 2026-04-30 09:47 | 51.22726 | 73.34693 | 26881 ft | 355 kts | 253° |
| 2026-04-30 09:47 | 51.21966 | 73.30963 | 26464 ft | 352 kts | 253° |
| 2026-04-30 09:48 | 51.21213 | 73.27272 | 26072 ft | 349 kts | 253° |
| 2026-04-30 09:48 | 51.20463 | 73.23614 | 25646 ft | 346 kts | 253° |
| 2026-04-30 09:48 | 51.19717 | 73.19975 | 25230 ft | 344 kts | 253° |
| 2026-04-30 09:48 | 51.18975 | 73.16353 | 24807 ft | 343 kts | 253° |
| 2026-04-30 09:49 | 51.18235 | 73.12753 | 24370 ft | 342 kts | 252° |
| 2026-04-30 09:49 | 51.17495 | 73.09162 | 23946 ft | 340 kts | 252° |
| 2026-04-30 09:49 | 51.16756 | 73.05581 | 23487 ft | 340 kts | 252° |
| 2026-04-30 09:49 | 51.16020 | 73.02014 | 23027 ft | 338 kts | 252° |
| 2026-04-30 09:50 | 51.15288 | 72.98466 | 22587 ft | 336 kts | 252° |
| 2026-04-30 09:50 | 51.14564 | 72.94950 | 22148 ft | 334 kts | 252° |
| 2026-04-30 09:50 | 51.13847 | 72.91439 | 21708 ft | 332 kts | 252° |
| 2026-04-30 09:50 | 51.13138 | 72.87946 | 21273 ft | 331 kts | 252° |
| 2026-04-30 09:51 | 51.12430 | 72.84467 | 20827 ft | 330 kts | 252° |
| 2026-04-30 09:51 | 51.11722 | 72.81001 | 20405 ft | 329 kts | 251° |
| 2026-04-30 09:51 | 51.11015 | 72.77547 | 19983 ft | 328 kts | 251° |
| 2026-04-30 09:51 | 51.10305 | 72.74100 | 19546 ft | 327 kts | 251° |
| 2026-04-30 09:52 | 51.09596 | 72.70659 | 19132 ft | 327 kts | 250° |
| 2026-04-30 09:52 | 51.08887 | 72.67221 | 18722 ft | 327 kts | 251° |
| 2026-04-30 09:52 | 51.08176 | 72.63784 | 18292 ft | 327 kts | 250° |
| 2026-04-30 09:52 | 51.07464 | 72.60348 | 17833 ft | 327 kts | 250° |
| 2026-04-30 09:53 | 51.06753 | 72.56929 | 17422 ft | 325 kts | 250° |
| 2026-04-30 09:53 | 51.06055 | 72.53578 | 17013 ft | 313 kts | 250° |
| 2026-04-30 09:53 | 51.05381 | 72.50350 | 16638 ft | 302 kts | 250° |
| 2026-04-30 09:53 | 51.04722 | 72.47198 | 16257 ft | 301 kts | 250° |
| 2026-04-30 09:54 | 51.04058 | 72.44039 | 15883 ft | 301 kts | 248° |
| 2026-04-30 09:54 | 51.03090 | 72.41124 | 15518 ft | 298 kts | 231° |
| 2026-04-30 09:54 | 51.01647 | 72.38779 | 15160 ft | 297 kts | 216° |
| 2026-04-30 09:54 | 50.99865 | 72.37206 | 15045 ft | 299 kts | 200° |
| 2026-04-30 09:55 | 50.97836 | 72.36450 | 15055 ft | 302 kts | 185° |
| 2026-04-30 09:55 | 50.95735 | 72.36551 | 15057 ft | 303 kts | 176° |
| 2026-04-30 09:55 | 50.93630 | 72.36727 | 15055 ft | 303 kts | 182° |
| 2026-04-30 09:55 | 50.91547 | 72.36313 | 15059 ft | 302 kts | 193° |
| 2026-04-30 09:56 | 50.89554 | 72.35280 | 15060 ft | 301 kts | 202° |
| 2026-04-30 09:56 | 50.87681 | 72.33809 | 15064 ft | 301 kts | 211° |
| 2026-04-30 09:56 | 50.86015 | 72.31787 | 15060 ft | 303 kts | 223° |
| 2026-04-30 09:56 | 50.84644 | 72.29252 | 15060 ft | 305 kts | 234° |
| 2026-04-30 09:57 | 50.83637 | 72.26297 | 15060 ft | 307 kts | 246° |
| 2026-04-30 09:57 | 50.83031 | 72.23053 | 15060 ft | 309 kts | 257° |
| 2026-04-30 09:57 | 50.82856 | 72.19647 | 15059 ft | 312 kts | 269° |
| 2026-04-30 09:57 | 50.83112 | 72.16198 | 14586 ft | 323 kts | 281° |
| 2026-04-30 09:58 | 50.83883 | 72.12835 | 14261 ft | 325 kts | 294° |
| 2026-04-30 09:58 | 50.85080 | 72.09821 | 13989 ft | 324 kts | 306° |
| 2026-04-30 09:58 | 50.86639 | 72.07275 | 13415 ft | 323 kts | 319° |
| 2026-04-30 09:58 | 50.88518 | 72.05340 | 12732 ft | 323 kts | 332° |
| 2026-04-30 09:59 | 50.92826 | 72.03556 | 11431 ft | 321 kts | 353° |
| 2026-04-30 09:59 | 50.97082 | 72.01802 | 10224 ft | 313 kts | 331° |
| 2026-04-30 10:00 | 51.00915 | 71.98651 | 9183 ft | 307 kts | 331° |
| 2026-04-30 10:00 | 51.02808 | 71.97100 | 8754 ft | 305 kts | 331° |
| 2026-04-30 10:01 | 51.06534 | 71.94049 | 7973 ft | 301 kts | 332° |
| 2026-04-30 10:01 | 51.08390 | 71.92528 | 7702 ft | 297 kts | 332° |
| 2026-04-30 10:01 | 51.10205 | 71.91037 | 7412 ft | 291 kts | 332° |
| 2026-04-30 10:02 | 51.13724 | 71.88091 | 6880 ft | 281 kts | 327° |
| 2026-04-30 10:02 | 51.15224 | 71.86158 | 6602 ft | 276 kts | 314° |
| 2026-04-30 10:02 | 51.16563 | 71.83995 | 6305 ft | 272 kts | 314° |
| 2026-04-30 10:02 | 51.17887 | 71.81870 | 6021 ft | 267 kts | 314° |
| 2026-04-30 10:03 | 51.19151 | 71.79805 | 5761 ft | 254 kts | 308° |
| 2026-04-30 10:03 | 51.19893 | 71.77366 | 5505 ft | 243 kts | 276° |
| 2026-04-30 10:03 | 51.19754 | 71.74768 | 5261 ft | 235 kts | 245° |
| 2026-04-30 10:03 | 51.18856 | 71.72662 | 5034 ft | 229 kts | 221° |
| 2026-04-30 10:04 | 51.17726 | 71.70888 | 4803 ft | 228 kts | 220° |
| 2026-04-30 10:04 | 51.16611 | 71.69143 | 4674 ft | 221 kts | 221° |
| 2026-04-30 10:04 | 51.15542 | 71.67460 | 4432 ft | 210 kts | 221° |
| 2026-04-30 10:04 | 51.14540 | 71.65880 | 4199 ft | 194 kts | 221° |
| 2026-04-30 10:05 | 51.13622 | 71.64435 | 3952 ft | 184 kts | 220° |
| 2026-04-30 10:05 | 51.12717 | 71.63012 | 3710 ft | 177 kts | 220° |
| 2026-04-30 10:05 | 51.11865 | 71.61672 | 3500 ft | 167 kts | 220° |
| 2026-04-30 10:05 | 51.11059 | 71.60408 | 3282 ft | 164 kts | 220° |
| 2026-04-30 10:06 | 51.10257 | 71.59149 | 3055 ft | 160 kts | 220° |
| 2026-04-30 10:06 | 51.09471 | 71.57916 | 2859 ft | 158 kts | 220° |
| 2026-04-30 10:06 | 51.08695 | 71.56700 | 2653 ft | 156 kts | 220° |
| 2026-04-30 10:06 | 51.07927 | 71.55495 | 2452 ft | 154 kts | 219° |
| 2026-04-30 10:07 | 51.07164 | 71.54301 | 2256 ft | 153 kts | 220° |
| 2026-04-30 10:07 | 51.06410 | 71.53116 | 2047 ft | 152 kts | 221° |
| 2026-04-30 10:07 | 51.05646 | 71.51914 | 1833 ft | 158 kts | 221° |
| 2026-04-30 10:07 | 51.04872 | 71.50703 | 1589 ft | 154 kts | 223° |
| 2026-04-30 10:08 | 51.04107 | 71.49505 | 1399 ft | 154 kts | 223° |
| 2026-04-30 10:08 | 51.03349 | 71.48321 | 1194 ft | 152 kts | 224° |
| 2026-04-30 10:08 | 51.02648 | 71.47232 | 1167 ft | 122 kts | 224° |
| 2026-04-30 10:08 | 51.02166 | 71.46481 | 1166 ft | 72 kts | 224° |
| 2026-04-30 10:09 | 51.01880 | 71.46036 | 1168 ft | 52 kts | 224° |
| 2026-04-30 10:09 | 51.01680 | 71.45712 | 1167 ft | 13 kts | 249° |
| 2026-04-30 10:09 | 51.01708 | 71.45635 | 1168 ft | 14 kts | 311° |
| 2026-04-30 10:09 | 51.01790 | 71.45506 | 1166 ft | 17 kts | 329° |
| 2026-04-30 10:10 | 51.01884 | 71.45578 | 1165 ft | 17 kts | 45° |
| 2026-04-30 10:10 | 51.01973 | 71.45717 | 1168 ft | 19 kts | 44° |
| 2026-04-30 10:10 | 51.02071 | 71.45870 | 1168 ft | 21 kts | 45° |
| 2026-04-30 10:10 | 51.02179 | 71.46039 | 1166 ft | 23 kts | 44° |
| 2026-04-30 10:11 | 51.02293 | 71.46218 | 1165 ft | 22 kts | 44° |
| 2026-04-30 10:11 | 51.02369 | 71.46202 | 1165 ft | 8 kts | 317° |
| 2026-04-30 10:11 | 51.02442 | 71.46095 | 1165 ft | 17 kts | 327° |
| 2026-04-30 10:11 | 51.02534 | 71.46167 | 1166 ft | 17 kts | 48° |
| 2026-04-30 10:12 | 51.02617 | 71.46305 | 1164 ft | 18 kts | 55° |
| 2026-04-30 10:12 | 51.02657 | 71.46450 | 1164 ft | 13 kts | 25° |
| 2026-04-30 10:12 | 51.02696 | 71.46409 | 1164 ft | 6 kts | 307° |
| 2026-04-30 10:12 | 51.02708 | 71.46391 | 1164 ft | 0 kts | 316° |